Time;durP1;ratioP1;P1;durP2;ratioP2;P2;SDS_P1;SDS_P2;PMS_P1;PMS_P2;Temp;Humidity;BMP_temperature;BMP_pressure;BME280_temperature;BME280_humidity;BME280_pressure;Samples;Min_cycle;Max_cycle;Signal;HPM_P1;HPM_P2
2021/06/13 00:00:18;;;;;;;21.33;6.10;;;;;;;;;;6253352;23;20016;-83
2021/06/13 00:02:44;;;;;;;14.30;5.65;;;;;;;;;;6251491;23;20035;-84
2021/06/13 00:05:12;;;;;;;20.35;6.57;;;;;;;;;;6251200;23;20028;-84
2021/06/13 00:07:39;;;;;;;25.35;5.97;;;;;;;;;;6225078;23;20051;-84
2021/06/13 00:10:16;;;;;;;17.90;6.63;;;;;;;;;;6226399;23;20077;-84
2021/06/13 00:12:43;;;;;;;22.85;7.63;;;;;;;;;;6224820;23;20024;-84
2021/06/13 00:15:12;;;;;;;23.02;7.15;;;;;;;;;;6225471;23;20074;-85
2021/06/13 00:17:52;;;;;;;24.95;7.22;;;;;;;;;;6251008;23;20118;-84
2021/06/13 00:20:23;;;;;;;21.92;6.85;;;;;;;;;;6226479;23;20153;-84
2021/06/13 00:22:49;;;;;;;16.02;6.05;;;;;;;;;;6251829;23;20024;-84
2021/06/13 00:25:17;;;;;;;21.45;7.00;;;;;;;;;;6252512;23;20034;-84
2021/06/13 00:27:44;;;;;;;22.15;6.25;;;;;;;;;;6252171;23;20287;-84
2021/06/13 00:30:11;;;;;;;23.42;7.32;;;;;;;;;;6231458;23;20024;-83
2021/06/13 00:32:38;;;;;;;25.17;6.32;;;;;;;;;;6254057;23;20107;-84
2021/06/13 00:35:05;;;;;;;23.08;7.03;;;;;;;;;;6252911;23;20456;-84
2021/06/13 00:37:31;;;;;;;27.40;6.55;;;;;;;;;;6251293;23;20279;-84
2021/06/13 00:39:58;;;;;;;16.95;7.22;;;;;;;;;;6250937;23;20594;-84
2021/06/13 00:42:28;;;;;;;22.60;6.93;;;;;;;;;;6224897;23;20028;-84
2021/06/13 00:44:55;;;;;;;20.23;6.20;;;;;;;;;;6225835;23;20028;-84
2021/06/13 00:47:21;;;;;;;16.48;6.65;;;;;;;;;;6225955;23;20090;-83
2021/06/13 00:49:48;;;;;;;24.17;7.47;;;;;;;;;;6251616;23;20133;-84
2021/06/13 00:52:16;;;;;;;17.58;5.97;;;;;;;;;;6250984;23;20353;-83
2021/06/13 00:54:43;;;;;;;25.15;6.95;;;;;;;;;;6250603;23;20024;-85
2021/06/13 00:57:13;;;;;;;28.67;7.05;;;;;;;;;;6224604;23;20023;-84
2021/06/13 00:59:39;;;;;;;22.40;6.43;;;;;;;;;;6251172;23;20345;-84
2021/06/13 01:02:05;;;;;;;25.63;7.25;;;;;;;;;;6224744;23;20170;-83
2021/06/13 01:04:35;;;;;;;21.73;6.22;;;;;;;;;;6225320;23;20055;-84
2021/06/13 01:07:12;;;;;;;18.40;6.40;;;;;;;;;;6226237;23;20024;-84
2021/06/13 01:09:41;;;;;;;19.20;6.47;;;;;;;;;;6250865;23;20024;-83
2021/06/13 01:12:25;;;;;;;25.27;6.32;;;;;;;;;;6225210;23;20086;-84
2021/06/13 01:15:01;;;;;;;20.67;6.53;;;;;;;;;;6251816;23;20047;-83
2021/06/13 01:21:11;;;;;;;23.15;6.38;;;;;;;;;;6251624;23;20011;-84
2021/06/13 01:23:59;;;;;;;23.80;6.88;;;;;;;;;;6251916;23;20173;-85
2021/06/13 01:26:58;;;;;;;22.00;7.13;;;;;;;;;;6242205;23;20025;-84
2021/06/13 01:29:47;;;;;;;31.70;6.90;;;;;;;;;;6252520;23;20081;-84
2021/06/13 01:32:29;;;;;;;19.35;6.50;;;;;;;;;;6235186;22;20088;-84
2021/06/13 01:35:07;;;;;;;18.65;6.40;;;;;;;;;;6252365;23;20394;-84
2021/06/13 01:37:37;;;;;;;19.50;6.68;;;;;;;;;;6251270;23;20215;-84
2021/06/13 01:40:06;;;;;;;17.73;6.25;;;;;;;;;;6254118;22;20122;-85
2021/06/13 01:42:33;;;;;;;23.90;6.80;;;;;;;;;;6253285;23;20063;-83
2021/06/13 01:45:01;;;;;;;18.77;6.18;;;;;;;;;;6253844;22;20252;-84
2021/06/13 01:47:28;;;;;;;19.58;6.00;;;;;;;;;;6252515;22;20063;-84
2021/06/13 01:50:00;;;;;;;17.60;6.78;;;;;;;;;;6251535;23;20082;-84
2021/06/13 01:52:33;;;;;;;19.27;6.65;;;;;;;;;;6252231;22;20317;-83
2021/06/13 01:54:59;;;;;;;20.83;6.38;;;;;;;;;;6251535;22;20028;-84
2021/06/13 01:57:32;;;;;;;16.63;6.93;;;;;;;;;;6252663;22;20076;-85
2021/06/13 02:00:05;;;;;;;20.48;6.95;;;;;;;;;;6278506;22;20056;-84
2021/06/13 02:02:35;;;;;;;19.00;6.53;;;;;;;;;;6250987;23;20086;-84
2021/06/13 02:05:03;;;;;;;29.98;7.55;;;;;;;;;;6253005;22;20402;-84
2021/06/13 02:07:37;;;;;;;24.52;7.88;;;;;;;;;;6255028;23;20035;-84
2021/06/13 02:10:08;;;;;;;21.52;7.45;;;;;;;;;;6280435;22;20118;-84
2021/06/13 02:12:35;;;;;;;20.98;6.72;;;;;;;;;;6251318;23;20039;-84
2021/06/13 02:15:03;;;;;;;25.48;7.72;;;;;;;;;;6253331;23;20054;-84
2021/06/13 02:17:31;;;;;;;20.92;7.47;;;;;;;;;;6252430;23;20027;-84
2021/06/13 02:19:58;;;;;;;17.83;7.30;;;;;;;;;;6252278;22;20039;-84
2021/06/13 02:22:25;;;;;;;23.38;7.00;;;;;;;;;;6251493;23;20203;-84
2021/06/13 02:25:03;;;;;;;22.65;7.05;;;;;;;;;;6252058;23;20036;-83
2021/06/13 02:27:30;;;;;;;25.83;7.28;;;;;;;;;;6250658;22;20103;-83
2021/06/13 02:30:01;;;;;;;21.50;7.18;;;;;;;;;;6250550;22;20096;-83
2021/06/13 02:32:33;;;;;;;22.88;6.32;;;;;;;;;;6252026;22;20067;-83
2021/06/13 02:35:00;;;;;;;24.27;6.82;;;;;;;;;;6250778;23;20024;-83
2021/06/13 02:37:30;;;;;;;23.25;6.65;;;;;;;;;;6227667;23;20028;-83
2021/06/13 02:40:10;;;;;;;24.13;6.95;;;;;;;;;;6253713;23;20098;-83
2021/06/13 02:42:37;;;;;;;27.33;7.57;;;;;;;;;;6252216;23;20028;-83
2021/06/13 02:45:06;;;;;;;19.95;7.13;;;;;;;;;;6254667;23;20482;-83
2021/06/13 02:47:33;;;;;;;20.38;7.70;;;;;;;;;;6253047;23;20047;-83
2021/06/13 02:50:01;;;;;;;20.77;6.40;;;;;;;;;;6227416;23;20048;-83
2021/06/13 02:52:39;;;;;;;19.33;6.78;;;;;;;;;;6226625;23;20020;-85
2021/06/13 02:55:09;;;;;;;18.25;6.70;;;;;;;;;;6226735;23;20313;-83
2021/06/13 02:57:43;;;;;;;21.80;7.80;;;;;;;;;;6254110;23;20378;-83
2021/06/13 03:00:10;;;;;;;17.73;6.57;;;;;;;;;;6253019;23;20292;-84
2021/06/13 03:02:40;;;;;;;29.63;7.70;;;;;;;;;;6251242;23;20031;-84
2021/06/13 03:05:07;;;;;;;23.88;7.07;;;;;;;;;;6226440;23;20138;-84
2021/06/13 03:07:38;;;;;;;20.20;6.57;;;;;;;;;;6249692;23;20110;-84
2021/06/13 03:10:07;;;;;;;18.83;7.40;;;;;;;;;;6254298;23;20024;-84
2021/06/13 03:12:34;;;;;;;21.15;7.38;;;;;;;;;;6267986;22;20051;-84
2021/06/13 03:15:04;;;;;;;29.38;8.65;;;;;;;;;;6246062;22;20205;-84
2021/06/13 03:17:33;;;;;;;18.80;7.43;;;;;;;;;;6260990;22;20032;-83
2021/06/13 03:20:00;;;;;;;24.70;7.00;;;;;;;;;;6252006;23;20035;-84
2021/06/13 03:22:27;;;;;;;21.00;7.95;;;;;;;;;;6251012;23;20032;-83
2021/06/13 03:24:55;;;;;;;20.75;8.02;;;;;;;;;;6253260;23;20020;-83
2021/06/13 03:27:30;;;;;;;29.83;8.38;;;;;;;;;;6227860;23;20083;-83
2021/06/13 03:29:57;;;;;;;20.33;7.05;;;;;;;;;;6226275;23;20020;-83
2021/06/13 03:32:24;;;;;;;20.52;7.43;;;;;;;;;;6236962;23;20024;-84
2021/06/13 03:34:51;;;;;;;32.60;7.97;;;;;;;;;;6252269;22;20035;-83
2021/06/13 03:37:18;;;;;;;21.17;7.10;;;;;;;;;;6252255;22;20062;-83
2021/06/13 03:39:44;;;;;;;18.77;7.00;;;;;;;;;;6274428;22;20224;-83
2021/06/13 03:42:11;;;;;;;16.33;6.72;;;;;;;;;;6251547;23;20024;-83
2021/06/13 03:44:39;;;;;;;18.63;6.68;;;;;;;;;;6250145;23;20024;-83
2021/06/13 03:47:06;;;;;;;23.95;7.43;;;;;;;;;;6274927;22;20035;-83
2021/06/13 03:49:34;;;;;;;22.60;6.68;;;;;;;;;;6252033;23;20035;-83
2021/06/13 03:52:01;;;;;;;24.02;7.20;;;;;;;;;;6250983;23;20072;-83
2021/06/13 03:54:28;;;;;;;22.58;6.57;;;;;;;;;;6252978;22;20066;-83
2021/06/13 03:56:58;;;;;;;22.88;7.65;;;;;;;;;;6252722;22;20055;-83
2021/06/13 03:59:25;;;;;;;17.45;6.28;;;;;;;;;;6252262;22;20040;-83
2021/06/13 04:01:53;;;;;;;18.35;6.15;;;;;;;;;;6250594;22;20098;-83
2021/06/13 04:04:20;;;;;;;20.65;6.57;;;;;;;;;;6253196;23;20028;-83
2021/06/13 04:06:47;;;;;;;19.75;6.95;;;;;;;;;;6252444;22;20040;-83
2021/06/13 04:09:18;;;;;;;19.40;6.40;;;;;;;;;;6252584;22;20111;-82
2021/06/13 04:11:48;;;;;;;26.60;6.72;;;;;;;;;;6250726;23;20035;-84
2021/06/13 04:14:15;;;;;;;16.83;5.88;;;;;;;;;;6252569;22;20118;-83
2021/06/13 04:16:46;;;;;;;23.98;5.72;;;;;;;;;;6252654;22;20027;-83
2021/06/13 04:19:15;;;;;;;22.65;5.60;;;;;;;;;;6251949;23;20085;-83
2021/06/13 04:21:43;;;;;;;19.88;4.80;;;;;;;;;;6254192;22;20359;-83
2021/06/13 04:24:10;;;;;;;16.42;4.72;;;;;;;;;;6253217;22;20310;-83
2021/06/13 04:26:38;;;;;;;12.35;4.93;;;;;;;;;;6251750;23;20098;-84
2021/06/13 04:29:05;;;;;;;19.48;5.28;;;;;;;;;;6254084;22;20024;-84
2021/06/13 04:31:32;;;;;;;16.13;4.25;;;;;;;;;;6253209;23;20076;-83
2021/06/13 04:33:58;;;;;;;16.65;4.22;;;;;;;;;;6253686;23;20080;-83
2021/06/13 04:36:26;;;;;;;12.27;4.55;;;;;;;;;;6253377;23;20130;-83
2021/06/13 04:38:52;;;;;;;9.85;3.97;;;;;;;;;;6253554;23;20028;-83
2021/06/13 04:41:25;;;;;;;12.45;4.40;;;;;;;;;;6226845;23;20050;-83
2021/06/13 04:43:52;;;;;;;13.15;4.05;;;;;;;;;;6251298;23;20114;-82
2021/06/13 04:46:23;;;;;;;14.13;4.57;;;;;;;;;;6253476;23;20286;-82
2021/06/13 04:48:52;;;;;;;14.20;4.10;;;;;;;;;;6225743;23;20031;-82
2021/06/13 04:51:24;;;;;;;15.50;4.20;;;;;;;;;;6252405;23;20032;-83
2021/06/13 04:54:08;;;;;;;13.23;4.38;;;;;;;;;;6252738;23;20080;-83
2021/06/13 04:56:53;;;;;;;9.50;3.88;;;;;;;;;;6227431;23;20035;-83
2021/06/13 04:59:20;;;;;;;12.27;3.97;;;;;;;;;;6254467;23;20050;-83
2021/06/13 05:01:47;;;;;;;15.15;4.53;;;;;;;;;;6259170;23;20038;-83
2021/06/13 05:04:14;;;;;;;11.93;4.20;;;;;;;;;;6231845;23;20017;-84
2021/06/13 05:06:44;;;;;;;11.98;4.38;;;;;;;;;;6227094;23;20046;-83
2021/06/13 05:09:11;;;;;;;15.23;4.38;;;;;;;;;;6227037;23;20103;-84
2021/06/13 05:11:37;;;;;;;15.70;4.20;;;;;;;;;;6252150;23;20119;-84
2021/06/13 05:14:07;;;;;;;10.85;4.40;;;;;;;;;;6225915;23;20103;-84
2021/06/13 05:16:40;;;;;;;9.75;3.70;;;;;;;;;;6252028;23;20024;-83
2021/06/13 05:19:08;;;;;;;12.00;3.70;;;;;;;;;;6229190;23;20055;-84
2021/06/13 05:21:34;;;;;;;10.77;4.05;;;;;;;;;;6230348;23;20508;-84
2021/06/13 05:24:01;;;;;;;12.35;4.03;;;;;;;;;;6252218;23;20096;-85
2021/06/13 05:26:28;;;;;;;14.68;3.72;;;;;;;;;;6252778;23;20024;-84
2021/06/13 05:28:55;;;;;;;9.02;3.75;;;;;;;;;;6251241;23;20048;-85
2021/06/13 05:31:22;;;;;;;10.35;3.80;;;;;;;;;;6252373;23;20028;-84
2021/06/13 05:33:53;;;;;;;11.15;4.03;;;;;;;;;;6253001;23;20029;-84
2021/06/13 05:36:22;;;;;;;13.90;4.80;;;;;;;;;;6250654;23;20028;-84
2021/06/13 05:38:49;;;;;;;10.85;3.90;;;;;;;;;;6250610;23;20381;-84
2021/06/13 05:41:19;;;;;;;13.55;3.67;;;;;;;;;;6252196;23;20362;-84
2021/06/13 05:43:46;;;;;;;15.13;4.50;;;;;;;;;;6224864;23;20028;-84
2021/06/13 05:46:13;;;;;;;9.00;3.40;;;;;;;;;;6226584;23;20031;-84
2021/06/13 05:48:49;;;;;;;13.32;3.85;;;;;;;;;;6252801;23;20075;-84
2021/06/13 05:51:18;;;;;;;;;;;;;;;;;;6226060;23;20046;-84
2021/06/13 05:53:47;;;;;;;9.45;3.58;;;;;;;;;;6251973;23;19923;-84
2021/06/13 05:56:16;;;;;;;14.40;3.70;;;;;;;;;;6251990;23;20032;-84
2021/06/13 05:58:52;;;;;;;16.77;3.55;;;;;;;;;;6250315;23;20111;-83
2021/06/13 06:01:18;;;;;;;10.18;3.83;;;;;;;;;;6248742;23;20328;-83
2021/06/13 06:03:45;;;;;;;9.05;3.63;;;;;;;;;;6250279;23;20024;-84
2021/06/13 06:06:12;;;;;;;11.18;4.03;;;;;;;;;;6224093;23;20050;-83
2021/06/13 06:08:51;;;;;;;11.43;4.03;;;;;;;;;;6249645;23;20103;-83
2021/06/13 06:11:18;;;;;;;10.23;3.88;;;;;;;;;;6249886;23;20055;-83
2021/06/13 06:13:44;;;;;;;10.93;3.55;;;;;;;;;;6224264;23;20028;-83
2021/06/13 06:16:14;;;;;;;11.23;3.40;;;;;;;;;;6224295;23;20048;-83
2021/06/13 06:18:41;;;;;;;9.80;3.60;;;;;;;;;;6252193;23;20024;-83
2021/06/13 06:21:07;;;;;;;11.80;4.10;;;;;;;;;;6251647;23;20023;-83
2021/06/13 06:23:34;;;;;;;14.50;4.35;;;;;;;;;;6254103;23;20028;-83
2021/06/13 06:26:08;;;;;;;12.30;4.10;;;;;;;;;;6227794;23;20038;-84
2021/06/13 06:28:34;;;;;;;10.15;3.38;;;;;;;;;;6251691;23;20067;-84
2021/06/13 06:31:01;;;;;;;10.18;3.60;;;;;;;;;;6225572;23;20533;-84
2021/06/13 06:33:57;;;;;;;9.20;3.58;;;;;;;;;;6250273;23;20063;-84
2021/06/13 06:36:26;;;;;;;9.55;3.10;;;;;;;;;;6226288;23;20106;-84
2021/06/13 06:38:53;;;;;;;9.52;3.50;;;;;;;;;;6253750;23;20030;-83
2021/06/13 06:41:23;;;;;;;11.00;3.28;;;;;;;;;;6252625;23;20024;-84
2021/06/13 06:43:51;;;;;;;9.02;3.10;;;;;;;;;;6250331;23;20396;-84
2021/06/13 06:46:17;;;;;;;7.05;3.22;;;;;;;;;;6249514;23;20428;-84
2021/06/13 06:48:44;;;;;;;7.88;3.38;;;;;;;;;;6225333;23;20024;-83
2021/06/13 06:51:11;;;;;;;10.57;3.35;;;;;;;;;;6223679;23;20091;-83
2021/06/13 06:53:40;;;;;;;11.38;3.85;;;;;;;;;;6251226;23;20024;-83
2021/06/13 06:56:07;;;;;;;12.52;3.55;;;;;;;;;;6229000;23;20024;-83
2021/06/13 06:58:35;;;;;;;11.40;3.80;;;;;;;;;;6243418;23;20265;-84
2021/06/13 07:01:10;;;;;;;8.80;2.88;;;;;;;;;;6268027;23;20016;-84
2021/06/13 07:03:39;;;;;;;11.05;3.72;;;;;;;;;;6227402;23;20378;-84
2021/06/13 07:06:06;;;;;;;12.45;3.88;;;;;;;;;;6224680;23;20050;-83
2021/06/13 07:08:33;;;;;;;8.90;3.03;;;;;;;;;;6225050;23;20024;-83
2021/06/13 07:11:03;;;;;;;11.52;3.03;;;;;;;;;;6251710;23;20027;-84
2021/06/13 07:13:37;;;;;;;8.43;2.92;;;;;;;;;;6251265;23;20027;-84
2021/06/13 07:16:12;;;;;;;8.02;2.95;;;;;;;;;;6227263;23;20048;-84
2021/06/13 07:18:39;;;;;;;11.05;3.33;;;;;;;;;;6225987;23;20078;-83
2021/06/13 07:21:09;;;;;;;10.93;4.03;;;;;;;;;;6225799;23;20035;-84
2021/06/13 07:23:36;;;;;;;11.05;3.42;;;;;;;;;;6224060;23;20072;-84
2021/06/13 07:26:03;;;;;;;8.63;2.92;;;;;;;;;;6223318;23;20031;-83
2021/06/13 07:28:32;;;;;;;5.93;2.72;;;;;;;;;;6252159;23;20060;-84
2021/06/13 07:31:05;;;;;;;7.55;3.30;;;;;;;;;;6226678;23;20024;-84
2021/06/13 07:33:32;;;;;;;7.55;2.83;;;;;;;;;;6224458;23;20370;-83
2021/06/13 07:35:59;;;;;;;5.78;2.50;;;;;;;;;;6255080;23;20032;-83
2021/06/13 07:38:26;;;;;;;5.32;2.22;;;;;;;;;;6258953;23;20028;-83
2021/06/13 07:40:56;;;;;;;5.30;2.22;;;;;;;;;;6252859;23;20036;-84
2021/06/13 07:43:23;;;;;;;7.85;2.25;;;;;;;;;;6251110;23;20024;-84
2021/06/13 07:45:53;;;;;;;10.10;3.03;;;;;;;;;;6251592;23;20024;-83
2021/06/13 07:48:21;;;;;;;9.15;2.97;;;;;;;;;;6248604;23;20024;-84
2021/06/13 07:50:48;;;;;;;10.13;2.88;;;;;;;;;;6248674;23;20024;-83
2021/06/13 07:53:15;;;;;;;7.57;2.67;;;;;;;;;;6254128;22;20024;-85
2021/06/13 07:55:45;;;;;;;8.25;3.05;;;;;;;;;;6252529;23;20040;-82
2021/06/13 07:58:12;;;;;;;8.60;3.00;;;;;;;;;;6248598;23;20307;-83
2021/06/13 08:00:39;;;;;;;7.10;2.70;;;;;;;;;;6249946;23;20285;-83
2021/06/13 08:03:06;;;;;;;6.70;2.50;;;;;;;;;;6249277;23;20285;-83
2021/06/13 08:05:35;;;;;;;8.80;2.92;;;;;;;;;;6250139;23;20051;-83
2021/06/13 08:08:06;;;;;;;7.53;2.35;;;;;;;;;;6248640;23;20020;-84
2021/06/13 08:10:34;;;;;;;6.90;2.65;;;;;;;;;;6221335;23;20044;-83
2021/06/13 08:13:01;;;;;;;7.65;2.90;;;;;;;;;;6221305;23;20030;-84
2021/06/13 08:15:29;;;;;;;10.50;2.90;;;;;;;;;;6221044;23;20031;-83
2021/06/13 08:17:59;;;;;;;7.07;2.40;;;;;;;;;;6218684;23;20047;-84
2021/06/13 08:20:27;;;;;;;11.95;2.83;;;;;;;;;;6245448;23;20035;-84
2021/06/13 08:22:53;;;;;;;9.63;3.13;;;;;;;;;;6218452;23;20027;-83
2021/06/13 08:25:21;;;;;;;8.48;3.03;;;;;;;;;;6245435;23;20428;-84
2021/06/13 08:27:48;;;;;;;10.73;2.90;;;;;;;;;;6245626;23;20437;-84
2021/06/13 08:30:16;;;;;;;8.95;3.00;;;;;;;;;;6245995;23;20176;-84
2021/06/13 08:32:43;;;;;;;8.38;2.60;;;;;;;;;;6245326;23;20417;-84
2021/06/13 08:35:11;;;;;;;7.97;2.72;;;;;;;;;;6246883;23;20057;-84
2021/06/13 08:37:38;;;;;;;5.68;2.30;;;;;;;;;;6243707;23;20172;-84
2021/06/13 08:40:06;;;;;;;8.10;2.67;;;;;;;;;;6218639;23;20024;-84
2021/06/13 08:42:38;;;;;;;8.20;2.85;;;;;;;;;;6243351;23;20075;-83
2021/06/13 08:45:09;;;;;;;6.53;2.53;;;;;;;;;;6219968;23;20074;-84
2021/06/13 08:47:36;;;;;;;8.30;3.05;;;;;;;;;;6243567;23;20083;-83
2021/06/13 08:50:04;;;;;;;7.57;2.17;;;;;;;;;;6244710;23;20110;-83
2021/06/13 08:52:36;;;;;;;4.75;2.67;;;;;;;;;;6245409;23;20022;-83
2021/06/13 08:55:06;;;;;;;6.60;2.50;;;;;;;;;;6243779;23;20042;-83
2021/06/13 08:57:36;;;;;;;7.13;2.95;;;;;;;;;;6244064;23;20024;-83
2021/06/13 09:00:18;;;;;;;9.13;2.45;;;;;;;;;;6247814;23;20425;-83
2021/06/13 09:02:45;;;;;;;11.73;2.90;;;;;;;;;;6219813;23;20099;-83
2021/06/13 09:05:13;;;;;;;9.07;3.30;;;;;;;;;;6222764;23;20024;-84
2021/06/13 09:07:47;;;;;;;8.18;2.85;;;;;;;;;;6248071;23;20298;-84
2021/06/13 09:10:17;;;;;;;8.00;2.97;;;;;;;;;;6250052;23;20099;-83
2021/06/13 09:12:46;;;;;;;8.50;2.85;;;;;;;;;;6221131;23;20096;-83
2021/06/13 09:15:13;;;;;;;7.22;2.30;;;;;;;;;;6245352;23;20028;-83
2021/06/13 09:17:44;;;;;;;8.05;2.70;;;;;;;;;;6219645;23;20090;-83
2021/06/13 09:20:20;;;;;;;6.95;2.90;;;;;;;;;;6245924;23;20149;-83
2021/06/13 09:23:12;;;;;;;9.23;2.72;;;;;;;;;;6253759;23;20051;-84
2021/06/13 09:25:41;;;;;;;7.13;2.45;;;;;;;;;;6217319;23;20107;-84
2021/06/13 09:28:11;;;;;;;6.88;2.47;;;;;;;;;;6247867;23;20067;-83
2021/06/13 09:30:38;;;;;;;12.55;3.13;;;;;;;;;;6220689;23;20024;-83
2021/06/13 09:33:10;;;;;;;8.43;2.63;;;;;;;;;;6238267;23;20039;-83
2021/06/13 09:35:37;;;;;;;8.50;2.92;;;;;;;;;;6246232;23;20051;-84
2021/06/13 09:38:25;;;;;;;6.63;2.78;;;;;;;;;;6246344;22;20028;-84
2021/06/13 09:41:02;;;;;;;9.45;2.97;;;;;;;;;;6246218;23;20160;-84
2021/06/13 09:43:40;;;;;;;8.65;2.97;;;;;;;;;;6246182;23;20025;-84
2021/06/13 09:46:16;;;;;;;10.10;3.13;;;;;;;;;;6245095;22;20326;-84
2021/06/13 09:48:44;;;;;;;9.10;3.10;;;;;;;;;;6243789;23;20086;-85
2021/06/13 09:51:20;;;;;;;7.97;2.83;;;;;;;;;;6247060;22;20110;-85
2021/06/13 09:53:51;;;;;;;7.70;3.38;;;;;;;;;;6248457;22;20032;-84
2021/06/13 09:56:27;;;;;;;5.95;2.33;;;;;;;;;;6250606;23;20080;-85
2021/06/13 09:58:53;;;;;;;6.57;3.05;;;;;;;;;;6250114;22;20330;-84
2021/06/13 10:01:22;;;;;;;9.50;3.15;;;;;;;;;;6249487;23;20371;-84
2021/06/13 10:03:49;;;;;;;6.45;2.88;;;;;;;;;;6247412;23;20024;-83
2021/06/13 10:06:18;;;;;;;6.97;2.75;;;;;;;;;;6248343;22;20028;-84
2021/06/13 10:08:46;;;;;;;6.20;2.67;;;;;;;;;;6251483;23;20050;-84
2021/06/13 10:11:13;;;;;;;11.57;3.03;;;;;;;;;;6250260;23;20024;-85
2021/06/13 10:13:57;;;;;;;7.55;2.65;;;;;;;;;;6249125;23;20193;-83
2021/06/13 10:16:33;;;;;;;15.85;3.55;;;;;;;;;;6248534;23;20035;-83
2021/06/13 10:19:02;;;;;;;6.90;3.03;;;;;;;;;;6249196;22;20086;-84
2021/06/13 10:21:35;;;;;;;10.38;2.53;;;;;;;;;;6248759;22;20031;-84
2021/06/13 10:24:07;;;;;;;9.73;3.03;;;;;;;;;;6248918;23;20031;-84
2021/06/13 10:26:36;;;;;;;6.25;2.83;;;;;;;;;;6262600;22;20067;-85
2021/06/13 10:29:09;;;;;;;6.70;2.28;;;;;;;;;;6266562;22;20059;-84
2021/06/13 10:31:37;;;;;;;6.40;2.70;;;;;;;;;;6257161;22;20039;-84
2021/06/13 10:34:04;;;;;;;7.47;2.65;;;;;;;;;;6223175;23;20055;-83
2021/06/13 10:36:31;;;;;;;6.68;2.95;;;;;;;;;;6223062;23;20087;-84
2021/06/13 10:38:58;;;;;;;7.45;2.50;;;;;;;;;;6222291;23;20024;-85
2021/06/13 10:41:28;;;;;;;9.27;2.88;;;;;;;;;;6223487;23;20094;-84
2021/06/13 10:43:59;;;;;;;8.00;2.65;;;;;;;;;;6248098;23;20312;-84
2021/06/13 10:46:26;;;;;;;6.38;2.47;;;;;;;;;;6252081;23;20050;-84
2021/06/13 10:48:56;;;;;;;9.90;3.03;;;;;;;;;;6224138;23;20024;-84
2021/06/13 10:51:26;;;;;;;5.15;2.50;;;;;;;;;;6220072;23;20396;-84
2021/06/13 10:56:43;;;;;;;8.07;2.80;;;;;;;;;;6249036;23;20039;-84
2021/06/13 10:59:18;;;;;;;9.02;2.80;;;;;;;;;;6249841;23;20024;-84
2021/06/13 11:01:58;;;;;;;5.95;2.63;;;;;;;;;;6248425;23;20039;-84
2021/06/13 11:04:45;;;;;;;5.78;2.63;;;;;;;;;;6251045;23;20048;-85
2021/06/13 11:07:41;;;;;;;7.32;2.80;;;;;;;;;;6248641;23;20032;-85
2021/06/13 11:10:17;;;;;;;10.07;3.03;;;;;;;;;;6223469;23;20086;-84
2021/06/13 11:12:49;;;;;;;8.98;3.00;;;;;;;;;;6249488;23;20038;-84
2021/06/13 11:15:27;;;;;;;8.40;2.80;;;;;;;;;;6224000;23;20035;-85
2021/06/13 11:17:57;;;;;;;6.55;2.95;;;;;;;;;;6249621;23;20056;-84
2021/06/13 11:20:27;;;;;;;6.88;3.13;;;;;;;;;;6250376;23;20102;-84
2021/06/13 11:22:54;;;;;;;6.60;3.20;;;;;;;;;;6224814;23;20075;-84
2021/06/13 11:25:40;;;;;;;10.20;3.22;;;;;;;;;;6250828;23;20020;-84
2021/06/13 11:28:24;;;;;;;7.95;2.60;;;;;;;;;;6222943;23;20028;-84
2021/06/13 11:30:53;;;;;;;12.73;2.75;;;;;;;;;;6248989;23;20083;-85
2021/06/13 11:33:32;;;;;;;9.57;3.20;;;;;;;;;;6244159;23;20209;-84
2021/06/13 11:36:00;;;;;;;8.70;2.97;;;;;;;;;;6252451;22;20028;-85
2021/06/13 11:38:28;;;;;;;7.18;2.83;;;;;;;;;;6275232;22;20039;-85
2021/06/13 11:40:57;;;;;;;8.02;3.25;;;;;;;;;;6250426;22;20020;-85
2021/06/13 11:43:25;;;;;;;5.82;2.35;;;;;;;;;;6251776;22;20024;-85
2021/06/13 11:46:06;;;;;;;9.02;2.67;;;;;;;;;;6252081;22;20020;-85
2021/06/13 11:48:36;;;;;;;8.18;3.47;;;;;;;;;;6245602;23;20587;-85
2021/06/13 11:51:10;;;;;;;5.82;2.63;;;;;;;;;;6245789;23;20099;-84
2021/06/13 11:54:00;;;;;;;8.23;3.03;;;;;;;;;;6247194;23;20058;-84
2021/06/13 11:56:36;;;;;;;9.00;2.40;;;;;;;;;;6245979;23;20069;-85
2021/06/13 11:59:12;;;;;;;8.68;3.00;;;;;;;;;;6248667;22;20040;-83
2021/06/13 12:01:39;;;;;;;6.97;2.90;;;;;;;;;;6250698;22;20107;-83
2021/06/13 12:04:14;;;;;;;8.70;3.38;;;;;;;;;;6246459;23;20028;-84
2021/06/13 12:06:42;;;;;;;8.60;2.80;;;;;;;;;;6250483;23;20030;-83
2021/06/13 12:09:11;;;;;;;6.55;2.85;;;;;;;;;;6250802;22;20020;-84
2021/06/13 12:11:58;;;;;;;7.90;3.30;;;;;;;;;;6251070;22;20035;-84
2021/06/13 12:14:41;;;;;;;8.20;2.75;;;;;;;;;;6251692;22;20047;-84
2021/06/13 12:17:16;;;;;;;8.88;3.40;;;;;;;;;;6248883;22;20456;-85
2021/06/13 12:19:46;;;;;;;11.82;6.40;;;;;;;;;;6248102;23;20039;-84
2021/06/13 12:22:14;;;;;;;10.40;3.55;;;;;;;;;;6272036;22;20024;-84
2021/06/13 12:27:25;;;;;;;9.00;3.50;;;;;;;;;;6249646;22;20024;-85
2021/06/13 12:29:56;;;;;;;7.88;3.50;;;;;;;;;;6250600;22;20110;-84
2021/06/13 12:32:27;;;;;;;7.45;3.47;;;;;;;;;;6249155;23;20023;-85
2021/06/13 12:35:08;;;;;;;7.30;3.05;;;;;;;;;;6247467;23;20012;-85
2021/06/13 12:37:35;;;;;;;10.27;3.05;;;;;;;;;;6274679;22;20032;-85
2021/06/13 12:40:15;;;;;;;7.53;2.83;;;;;;;;;;6246013;23;20291;-84
2021/06/13 12:42:45;;;;;;;8.07;3.28;;;;;;;;;;6246586;23;20024;-84
2021/06/13 12:45:13;;;;;;;7.47;3.00;;;;;;;;;;6245953;23;20116;-84
2021/06/13 12:47:42;;;;;;;10.63;3.63;;;;;;;;;;6243525;23;20024;-84
2021/06/13 12:50:11;;;;;;;8.95;3.17;;;;;;;;;;6243754;22;20227;-84
2021/06/13 12:52:46;;;;;;;9.73;4.05;;;;;;;;;;6217750;23;20024;-84
2021/06/13 12:55:23;;;;;;;7.03;3.13;;;;;;;;;;6246115;23;20039;-84
2021/06/13 12:58:01;;;;;;;9.48;5.63;;;;;;;;;;6247004;22;20030;-84
2021/06/13 13:00:32;;;;;;;9.05;3.78;;;;;;;;;;6276022;22;20028;-85
2021/06/13 13:03:06;;;;;;;8.15;3.10;;;;;;;;;;6246166;23;20085;-85
2021/06/13 13:05:33;;;;;;;6.63;3.20;;;;;;;;;;6244628;23;20401;-85
2021/06/13 13:08:16;;;;;;;9.18;3.50;;;;;;;;;;6268461;22;20206;-85
2021/06/13 13:11:01;;;;;;;8.55;3.55;;;;;;;;;;6248236;22;20028;-85
2021/06/13 13:13:33;;;;;;;7.70;3.20;;;;;;;;;;6246080;23;20040;-84
2021/06/13 13:16:01;;;;;;;8.93;2.80;;;;;;;;;;6246630;22;20343;-84
2021/06/13 13:18:36;;;;;;;5.88;3.03;;;;;;;;;;6246764;22;20082;-84
2021/06/13 13:21:03;;;;;;;4.93;2.70;;;;;;;;;;6246556;23;20047;-85
2021/06/13 13:23:37;;;;;;;10.32;3.03;;;;;;;;;;6243420;23;20263;-83
2021/06/13 13:26:04;;;;;;;14.30;4.20;;;;;;;;;;6245255;23;20445;-84
2021/06/13 13:28:33;;;;;;;10.32;3.58;;;;;;;;;;6245022;22;20049;-83
2021/06/13 13:31:01;;;;;;;9.02;3.58;;;;;;;;;;6246519;22;20054;-83
2021/06/13 13:33:31;;;;;;;7.25;3.72;;;;;;;;;;6269822;22;20128;-83
2021/06/13 13:35:58;;;;;;;6.60;2.88;;;;;;;;;;6247767;23;20074;-82
2021/06/13 13:38:46;;;;;;;7.50;3.30;;;;;;;;;;6250523;22;20072;-82
2021/06/13 13:41:55;;;;;;;10.93;3.58;;;;;;;;;;6246629;23;20054;-83
2021/06/13 13:44:22;;;;;;;11.10;3.20;;;;;;;;;;6247566;23;20024;-83
2021/06/13 13:46:58;;;;;;;10.18;3.25;;;;;;;;;;6250355;23;20020;-82
2021/06/13 13:49:27;;;;;;;8.80;3.58;;;;;;;;;;6247687;23;20133;-82
2021/06/13 13:51:58;;;;;;;10.30;3.63;;;;;;;;;;6273965;22;20020;-83
2021/06/13 13:54:32;;;;;;;8.63;3.97;;;;;;;;;;6249339;22;20232;-84
2021/06/13 13:57:10;;;;;;;8.80;3.85;;;;;;;;;;6253188;23;20016;-84
2021/06/13 13:59:37;;;;;;;11.75;3.78;;;;;;;;;;6261455;22;20039;-83
2021/06/13 14:02:05;;;;;;;8.07;3.15;;;;;;;;;;6258825;22;20024;-84
2021/06/13 14:04:35;;;;;;;9.18;3.72;;;;;;;;;;6248899;23;20024;-84
2021/06/13 14:07:04;;;;;;;8.02;3.20;;;;;;;;;;6251733;22;20035;-84
2021/06/13 14:09:31;;;;;;;6.50;2.97;;;;;;;;;;6249398;23;20425;-83
2021/06/13 14:11:58;;;;;;;5.70;3.03;;;;;;;;;;6251209;22;20426;-82
2021/06/13 14:14:27;;;;;;;8.68;2.83;;;;;;;;;;6251314;22;20036;-84
2021/06/13 14:16:54;;;;;;;7.15;3.30;;;;;;;;;;6250079;22;20158;-83
2021/06/13 14:19:22;;;;;;;10.00;3.10;;;;;;;;;;6274642;22;20028;-83
2021/06/13 14:21:53;;;;;;;7.25;2.97;;;;;;;;;;6251547;22;20078;-84
2021/06/13 14:24:26;;;;;;;7.30;3.13;;;;;;;;;;6249537;23;20059;-83
2021/06/13 14:26:57;;;;;;;7.57;2.90;;;;;;;;;;6252016;22;20047;-83
2021/06/13 14:29:25;;;;;;;8.52;3.28;;;;;;;;;;6276950;22;20031;-85
2021/06/13 14:31:57;;;;;;;8.82;3.42;;;;;;;;;;6251266;22;20048;-84
2021/06/13 14:34:24;;;;;;;8.70;3.03;;;;;;;;;;6223935;23;20078;-84
2021/06/13 14:36:51;;;;;;;8.40;3.28;;;;;;;;;;6221837;23;20027;-85
2021/06/13 14:39:18;;;;;;;6.72;2.47;;;;;;;;;;6248198;23;20035;-84
2021/06/13 14:41:49;;;;;;;10.73;3.13;;;;;;;;;;6225504;23;20035;-84
2021/06/13 14:44:15;;;;;;;8.43;2.90;;;;;;;;;;6224016;23;20056;-85
2021/06/13 14:46:43;;;;;;;5.95;2.67;;;;;;;;;;6224555;23;20106;-83
2021/06/13 14:49:10;;;;;;;7.82;3.03;;;;;;;;;;6224298;23;20025;-84
2021/06/13 14:51:39;;;;;;;7.82;3.35;;;;;;;;;;6223544;23;20222;-84
2021/06/13 14:54:06;;;;;;;5.93;2.83;;;;;;;;;;6252416;23;20351;-85
2021/06/13 14:56:33;;;;;;;7.80;2.95;;;;;;;;;;6251241;23;20023;-85
2021/06/13 14:59:04;;;;;;;6.75;3.00;;;;;;;;;;6223645;23;20039;-85
2021/06/13 15:01:31;;;;;;;8.52;3.00;;;;;;;;;;6221337;23;20428;-83
2021/06/13 15:03:59;;;;;;;9.07;3.42;;;;;;;;;;6246977;23;20024;-84